Terminal Aerodrome Forecast
Issued by NWS

Home | Current Version | Previous Version | Text Only | Print | Product List | Glossary On
Versions: 1 2 3 4 5 6 7 8 9 10 11 12 13
000
FTUS44 KOUN 200520
TAFCSM
TAF
KCSM 200520Z 2006/2106 18010KT P6SM SCT250
     FM201400 21013G21KT P6SM FEW080
     FM210000 17012KT P6SM SCT250=

USA.gov is the U.S. government's official web portal to all federal, state and local government web resources and services.